sensor_id;sensor_type;location;lat;lon;timestamp;pressure;altitude;pressure_sealevel;temperature;humidity
61035;BME280;46916;40.564;-7.958;2023-11-22T00:01:42;98296.72;;;10.32;71.29
61035;BME280;46916;40.564;-7.958;2023-11-22T00:03:42;98298.00;;;10.26;71.56
61035;BME280;46916;40.564;-7.958;2023-11-22T00:05:43;98293.59;;;10.27;71.14
61035;BME280;46916;40.564;-7.958;2023-11-22T00:07:43;98302.06;;;10.30;71.22
61035;BME280;46916;40.564;-7.958;2023-11-22T00:09:44;98305.53;;;10.31;71.72
61035;BME280;46916;40.564;-7.958;2023-11-22T00:11:46;98298.13;;;10.25;71.37
61035;BME280;46916;40.564;-7.958;2023-11-22T00:13:47;98294.72;;;10.23;71.72
61035;BME280;46916;40.564;-7.958;2023-11-22T00:15:49;98302.69;;;10.21;71.83
61035;BME280;46916;40.564;-7.958;2023-11-22T00:17:50;98292.41;;;10.18;71.72
61035;BME280;46916;40.564;-7.958;2023-11-22T00:19:51;98295.03;;;10.18;71.56
61035;BME280;46916;40.564;-7.958;2023-11-22T00:21:52;98289.19;;;10.14;71.26
61035;BME280;46916;40.564;-7.958;2023-11-22T00:23:52;98297.66;;;10.05;71.91
61035;BME280;46916;40.564;-7.958;2023-11-22T00:25:53;98291.81;;;10.02;71.95
61035;BME280;46916;40.564;-7.958;2023-11-22T00:27:54;98284.59;;;9.92;72.32
61035;BME280;46916;40.564;-7.958;2023-11-22T00:29:55;98284.69;;;9.91;72.30
61035;BME280;46916;40.564;-7.958;2023-11-22T00:31:56;98279.69;;;9.88;72.75
61035;BME280;46916;40.564;-7.958;2023-11-22T00:33:57;98285.09;;;9.85;72.75
61035;BME280;46916;40.564;-7.958;2023-11-22T00:35:57;98281.97;;;9.80;72.75
61035;BME280;46916;40.564;-7.958;2023-11-22T00:37:58;98275.56;;;9.71;72.74
61035;BME280;46916;40.564;-7.958;2023-11-22T00:39:59;98268.03;;;9.66;72.99
61035;BME280;46916;40.564;-7.958;2023-11-22T00:42:01;98272.75;;;9.61;73.43
61035;BME280;46916;40.564;-7.958;2023-11-22T00:44:01;98266.78;;;9.59;73.61
61035;BME280;46916;40.564;-7.958;2023-11-22T00:46:04;98262.91;;;9.65;73.38
61035;BME280;46916;40.564;-7.958;2023-11-22T00:48:04;98256.84;;;9.64;72.99
61035;BME280;46916;40.564;-7.958;2023-11-22T00:50:05;98256.94;;;9.63;73.40
61035;BME280;46916;40.564;-7.958;2023-11-22T00:52:06;98259.66;;;9.61;73.04
61035;BME280;46916;40.564;-7.958;2023-11-22T00:54:07;98257.25;;;9.58;73.22
61035;BME280;46916;40.564;-7.958;2023-11-22T00:56:08;98250.53;;;9.54;73.27
61035;BME280;46916;40.564;-7.958;2023-11-22T00:58:09;98252.31;;;9.54;73.35
61035;BME280;46916;40.564;-7.958;2023-11-22T01:00:10;98245.31;;;9.54;73.35
61035;BME280;46916;40.564;-7.958;2023-11-22T01:02:12;98240.63;;;9.59;73.28
61035;BME280;46916;40.564;-7.958;2023-11-22T01:04:13;98235.50;;;9.58;73.31
61035;BME280;46916;40.564;-7.958;2023-11-22T01:06:15;98238.84;;;9.60;73.46
61035;BME280;46916;40.564;-7.958;2023-11-22T01:08:15;98235.69;;;9.55;73.43
61035;BME280;46916;40.564;-7.958;2023-11-22T01:10:16;98244.09;;;9.60;73.28
61035;BME280;46916;40.564;-7.958;2023-11-22T01:12:17;98235.09;;;9.51;73.37
61035;BME280;46916;40.564;-7.958;2023-11-22T01:14:17;98236.75;;;9.52;73.33
61035;BME280;46916;40.564;-7.958;2023-11-22T01:16:18;98240.09;;;9.54;73.26
61035;BME280;46916;40.564;-7.958;2023-11-22T01:18:19;98231.72;;;9.49;73.30
61035;BME280;46916;40.564;-7.958;2023-11-22T01:20:19;98234.34;;;9.49;73.05
61035;BME280;46916;40.564;-7.958;2023-11-22T01:22:23;98234.34;;;9.49;73.37
61035;BME280;46916;40.564;-7.958;2023-11-22T01:24:23;98227.63;;;9.45;73.25
61035;BME280;46916;40.564;-7.958;2023-11-22T01:26:25;98234.75;;;9.43;73.63
61035;BME280;46916;40.564;-7.958;2023-11-22T01:28:26;98245.09;;;9.45;73.42
61035;BME280;46916;40.564;-7.958;2023-11-22T01:30:27;98244.34;;;9.42;73.86
61035;BME280;46916;40.564;-7.958;2023-11-22T01:32:29;98249.38;;;9.46;73.88
61035;BME280;46916;40.564;-7.958;2023-11-22T01:34:29;98244.28;;;9.44;73.79
61035;BME280;46916;40.564;-7.958;2023-11-22T01:36:30;98237.97;;;9.47;73.87
61035;BME280;46916;40.564;-7.958;2023-11-22T01:38:31;98245.94;;;9.45;73.49
61035;BME280;46916;40.564;-7.958;2023-11-22T01:40:32;98247.84;;;9.43;73.96
61035;BME280;46916;40.564;-7.958;2023-11-22T01:42:33;98244.16;;;9.46;73.98
61035;BME280;46916;40.564;-7.958;2023-11-22T01:44:34;98241.66;;;9.44;73.77
61035;BME280;46916;40.564;-7.958;2023-11-22T01:46:35;98253.25;;;9.40;74.05
61035;BME280;46916;40.564;-7.958;2023-11-22T01:48:36;98252.75;;;9.35;73.96
61035;BME280;46916;40.564;-7.958;2023-11-22T01:50:40;98255.56;;;9.32;74.36
61035;BME280;46916;40.564;-7.958;2023-11-22T01:52:42;98249.50;;;9.31;74.24
61035;BME280;46916;40.564;-7.958;2023-11-22T01:54:43;98244.34;;;9.30;74.02
61035;BME280;46916;40.564;-7.958;2023-11-22T01:56:44;98245.19;;;9.30;74.23
61035;BME280;46916;40.564;-7.958;2023-11-22T01:58:45;98247.19;;;9.27;74.39
61035;BME280;46916;40.564;-7.958;2023-11-22T02:00:50;98247.56;;;9.21;74.52
61035;BME280;46916;40.564;-7.958;2023-11-22T02:02:52;98248.72;;;9.16;74.46
61035;BME280;46916;40.564;-7.958;2023-11-22T02:04:53;98253.22;;;9.14;75.05
61035;BME280;46916;40.564;-7.958;2023-11-22T02:06:54;98254.88;;;9.15;74.70
61035;BME280;46916;40.564;-7.958;2023-11-22T02:08:55;98251.53;;;9.13;74.89
61035;BME280;46916;40.564;-7.958;2023-11-22T02:10:59;98257.50;;;9.15;74.99
61035;BME280;46916;40.564;-7.958;2023-11-22T02:13:00;98262.81;;;9.14;74.67
61035;BME280;46916;40.564;-7.958;2023-11-22T02:15:05;98266.38;;;9.13;74.81
61035;BME280;46916;40.564;-7.958;2023-11-22T02:17:06;98264.88;;;9.09;74.93
61035;BME280;46916;40.564;-7.958;2023-11-22T02:19:14;98260.91;;;9.03;75.18
61035;BME280;46916;40.564;-7.958;2023-11-22T02:21:18;98274.16;;;9.00;75.08
61035;BME280;46916;40.564;-7.958;2023-11-22T02:23:19;98271.56;;;9.00;75.49
61035;BME280;46916;40.564;-7.958;2023-11-22T02:25:19;98267.34;;;8.98;75.36
61035;BME280;46916;40.564;-7.958;2023-11-22T02:27:21;98266.34;;;9.00;75.19
61035;BME280;46916;40.564;-7.958;2023-11-22T02:29:22;98276.06;;;8.98;75.09
61035;BME280;46916;40.564;-7.958;2023-11-22T02:31:24;98279.41;;;9.00;74.98
61035;BME280;46916;40.564;-7.958;2023-11-22T02:33:24;98276.91;;;8.99;74.98
61035;BME280;46916;40.564;-7.958;2023-11-22T02:35:25;98278.69;;;8.98;74.87
61035;BME280;46916;40.564;-7.958;2023-11-22T02:37:27;98276.91;;;8.99;74.85
61035;BME280;46916;40.564;-7.958;2023-11-22T02:39:41;98272.50;;;8.99;74.73
61035;BME280;46916;40.564;-7.958;2023-11-22T02:41:44;98276.91;;;8.99;74.57
61035;BME280;46916;40.564;-7.958;2023-11-22T02:43:45;98273.44;;;8.98;74.80
61035;BME280;46916;40.564;-7.958;2023-11-22T02:45:46;98262.06;;;8.99;74.58
61035;BME280;46916;40.564;-7.958;2023-11-22T02:47:47;98266.34;;;9.00;74.97
61035;BME280;46916;40.564;-7.958;2023-11-22T02:49:48;98255.69;;;9.03;74.86
61035;BME280;46916;40.564;-7.958;2023-11-22T02:51:49;98244.19;;;9.06;74.81
61035;BME280;46916;40.564;-7.958;2023-11-22T02:53:49;98251.63;;;9.12;74.27
61035;BME280;46916;40.564;-7.958;2023-11-22T02:55:51;98248.19;;;9.11;74.26
61035;BME280;46916;40.564;-7.958;2023-11-22T02:57:52;98241.81;;;9.15;74.10
61035;BME280;46916;40.564;-7.958;2023-11-22T02:59:52;98242.75;;;9.14;74.02
61035;BME280;46916;40.564;-7.958;2023-11-22T03:01:53;98245.91;;;9.20;73.73
61035;BME280;46916;40.564;-7.958;2023-11-22T03:03:53;98240.69;;;9.20;73.38
61035;BME280;46916;40.564;-7.958;2023-11-22T03:05:54;98238.78;;;9.22;73.23
61035;BME280;46916;40.564;-7.958;2023-11-22T03:07:55;98238.06;;;9.20;72.58
61035;BME280;46916;40.564;-7.958;2023-11-22T03:09:57;98250.06;;;9.22;72.50
61035;BME280;46916;40.564;-7.958;2023-11-22T03:12:00;98240.75;;;9.18;72.64
61035;BME280;46916;40.564;-7.958;2023-11-22T03:14:02;98242.34;;;9.21;72.62
61035;BME280;46916;40.564;-7.958;2023-11-22T03:16:04;98229.91;;;9.24;72.52
61035;BME280;46916;40.564;-7.958;2023-11-22T03:18:05;98239.44;;;9.25;72.46
61035;BME280;46916;40.564;-7.958;2023-11-22T03:20:07;98242.88;;;9.26;72.28
61035;BME280;46916;40.564;-7.958;2023-11-22T03:22:11;98241.00;;;9.28;72.05
61035;BME280;46916;40.564;-7.958;2023-11-22T03:24:12;98235.03;;;9.26;71.95
61035;BME280;46916;40.564;-7.958;2023-11-22T03:26:13;98233.81;;;9.31;71.81
61035;BME280;46916;40.564;-7.958;2023-11-22T03:28:15;98235.47;;;9.32;71.74
61035;BME280;46916;40.564;-7.958;2023-11-22T03:30:15;98239.88;;;9.32;71.99
61035;BME280;46916;40.564;-7.958;2023-11-22T03:32:16;98235.34;;;9.34;71.92
61035;BME280;46916;40.564;-7.958;2023-11-22T03:34:19;98237.06;;;9.35;71.30
61035;BME280;46916;40.564;-7.958;2023-11-22T03:36:20;98234.53;;;9.33;71.08
61035;BME280;46916;40.564;-7.958;2023-11-22T03:38:22;98239.75;;;9.33;71.56
61035;BME280;46916;40.564;-7.958;2023-11-22T03:40:24;98235.47;;;9.32;71.64
61035;BME280;46916;40.564;-7.958;2023-11-22T03:42:24;98237.34;;;9.30;71.45
61035;BME280;46916;40.564;-7.958;2023-11-22T03:44:25;98246.03;;;9.31;71.56
61035;BME280;46916;40.564;-7.958;2023-11-22T03:46:26;98244.34;;;9.30;71.57
61035;BME280;46916;40.564;-7.958;2023-11-22T03:48:26;98238.41;;;9.28;71.93
61035;BME280;46916;40.564;-7.958;2023-11-22T03:50:28;98232.22;;;9.29;72.25
61035;BME280;46916;40.564;-7.958;2023-11-22T03:52:29;98233.81;;;9.31;72.08
61035;BME280;46916;40.564;-7.958;2023-11-22T03:54:30;98236.41;;;9.31;72.08
61035;BME280;46916;40.564;-7.958;2023-11-22T03:56:31;98234.63;;;9.32;72.04
61035;BME280;46916;40.564;-7.958;2023-11-22T03:58:31;98234.13;;;9.27;72.08
61035;BME280;46916;40.564;-7.958;2023-11-22T04:00:32;98233.06;;;9.29;72.28
61035;BME280;46916;40.564;-7.958;2023-11-22T04:02:32;98230.25;;;9.32;72.09
61035;BME280;46916;40.564;-7.958;2023-11-22T04:04:33;98236.41;;;9.31;71.94
61035;BME280;46916;40.564;-7.958;2023-11-22T04:06:34;98226.28;;;9.27;72.36
61035;BME280;46916;40.564;-7.958;2023-11-22T04:08:34;98228.66;;;9.30;72.40
61035;BME280;46916;40.564;-7.958;2023-11-22T04:10:35;98226.03;;;9.30;72.22
61035;BME280;46916;40.564;-7.958;2023-11-22T04:12:36;98216.84;;;9.24;72.39
61035;BME280;46916;40.564;-7.958;2023-11-22T04:14:37;98216.97;;;9.23;72.85
61035;BME280;46916;40.564;-7.958;2023-11-22T04:16:38;98225.81;;;9.20;73.06
61035;BME280;46916;40.564;-7.958;2023-11-22T04:18:39;98227.50;;;9.21;72.73
61035;BME280;46916;40.564;-7.958;2023-11-22T04:20:41;98230.22;;;9.20;72.28
61035;BME280;46916;40.564;-7.958;2023-11-22T04:22:43;98231.06;;;9.20;72.42
61035;BME280;46916;40.564;-7.958;2023-11-22T04:24:45;98223.31;;;9.18;72.19
61035;BME280;46916;40.564;-7.958;2023-11-22T04:26:46;98219.13;;;9.16;72.19
61035;BME280;46916;40.564;-7.958;2023-11-22T04:28:46;98225.38;;;9.13;72.28
61035;BME280;46916;40.564;-7.958;2023-11-22T04:30:47;98225.38;;;9.13;71.92
61035;BME280;46916;40.564;-7.958;2023-11-22T04:32:47;98228.94;;;9.12;71.87
61035;BME280;46916;40.564;-7.958;2023-11-22T04:34:49;98228.00;;;9.13;71.47
61035;BME280;46916;40.564;-7.958;2023-11-22T04:36:49;98225.63;;;9.10;71.37
61035;BME280;46916;40.564;-7.958;2023-11-22T04:38:50;98225.88;;;9.06;71.91
61035;BME280;46916;40.564;-7.958;2023-11-22T04:40:51;98230.41;;;9.04;71.91
61035;BME280;46916;40.564;-7.958;2023-11-22T04:42:51;98237.41;;;9.03;71.81
61035;BME280;46916;40.564;-7.958;2023-11-22T04:44:53;98243.13;;;8.96;71.98
61035;BME280;46916;40.564;-7.958;2023-11-22T04:46:54;98237.06;;;8.95;71.95
61035;BME280;46916;40.564;-7.958;2023-11-22T04:48:55;98243.22;;;8.94;71.94
61035;BME280;46916;40.564;-7.958;2023-11-22T04:50:55;98243.31;;;8.92;71.94
61035;BME280;46916;40.564;-7.958;2023-11-22T04:52:57;98245.19;;;8.90;72.07
61035;BME280;46916;40.564;-7.958;2023-11-22T04:54:57;98233.28;;;8.86;72.16
61035;BME280;46916;40.564;-7.958;2023-11-22T04:56:58;98238.69;;;8.83;72.28
61035;BME280;46916;40.564;-7.958;2023-11-22T04:58:59;98238.69;;;8.83;72.72
61035;BME280;46916;40.564;-7.958;2023-11-22T05:00:59;98235.44;;;8.80;73.12
61035;BME280;46916;40.564;-7.958;2023-11-22T05:03:01;98240.00;;;8.76;73.18
61035;BME280;46916;40.564;-7.958;2023-11-22T05:05:02;98241.91;;;8.74;73.08
61035;BME280;46916;40.564;-7.958;2023-11-22T05:07:03;98252.66;;;8.70;73.15
61035;BME280;46916;40.564;-7.958;2023-11-22T05:09:04;98254.50;;;8.67;73.41
61035;BME280;46916;40.564;-7.958;2023-11-22T05:11:06;98253.22;;;8.60;73.68
61035;BME280;46916;40.564;-7.958;2023-11-22T05:13:08;98256.94;;;8.56;74.16
61035;BME280;46916;40.564;-7.958;2023-11-22T05:15:09;98252.84;;;8.52;74.22
61035;BME280;46916;40.564;-7.958;2023-11-22T05:17:09;98261.75;;;8.50;74.03
61035;BME280;46916;40.564;-7.958;2023-11-22T05:19:10;98257.06;;;8.40;74.53
61035;BME280;46916;40.564;-7.958;2023-11-22T05:21:11;98263.34;;;8.38;74.74
61035;BME280;46916;40.564;-7.958;2023-11-22T05:23:12;98271.91;;;8.40;74.67
61035;BME280;46916;40.564;-7.958;2023-11-22T05:25:14;98276.41;;;8.38;74.19
61035;BME280;46916;40.564;-7.958;2023-11-22T05:27:14;98271.22;;;8.36;74.70
61035;BME280;46916;40.564;-7.958;2023-11-22T05:29:15;98268.81;;;8.33;74.98
61035;BME280;46916;40.564;-7.958;2023-11-22T05:31:16;98268.91;;;8.32;74.90
61035;BME280;46916;40.564;-7.958;2023-11-22T05:33:16;98271.78;;;8.27;75.06
61035;BME280;46916;40.564;-7.958;2023-11-22T05:35:17;98269.47;;;8.23;75.46
61035;BME280;46916;40.564;-7.958;2023-11-22T05:37:18;98273.03;;;8.22;75.43
61035;BME280;46916;40.564;-7.958;2023-11-22T05:39:19;98275.91;;;8.17;75.54
61035;BME280;46916;40.564;-7.958;2023-11-22T05:41:19;98272.84;;;8.10;75.90
61035;BME280;46916;40.564;-7.958;2023-11-22T05:43:20;98267.06;;;8.05;76.09
61035;BME280;46916;40.564;-7.958;2023-11-22T05:45:25;98265.19;;;8.07;76.02
61035;BME280;46916;40.564;-7.958;2023-11-22T05:47:26;98273.22;;;8.04;76.38
61035;BME280;46916;40.564;-7.958;2023-11-22T05:49:27;98273.22;;;8.04;76.21
61035;BME280;46916;40.564;-7.958;2023-11-22T05:51:28;98272.47;;;8.02;76.29
61035;BME280;46916;40.564;-7.958;2023-11-22T05:53:29;98287.09;;;8.05;76.56
61035;BME280;46916;40.564;-7.958;2023-11-22T05:55:29;98286.91;;;8.08;76.45
61035;BME280;46916;40.564;-7.958;2023-11-22T05:57:30;98280.84;;;8.07;76.33
61035;BME280;46916;40.564;-7.958;2023-11-22T05:59:31;98292.78;;;7.97;76.50
61035;BME280;46916;40.564;-7.958;2023-11-22T06:01:31;98288.03;;;7.89;77.14
61035;BME280;46916;40.564;-7.958;2023-11-22T06:03:32;98280.47;;;7.85;77.41
61035;BME280;46916;40.564;-7.958;2023-11-22T06:05:33;98280.31;;;7.88;77.61
61035;BME280;46916;40.564;-7.958;2023-11-22T06:07:34;98290.53;;;7.91;77.17
61035;BME280;46916;40.564;-7.958;2023-11-22T06:09:34;98288.69;;;7.93;77.22
61035;BME280;46916;40.564;-7.958;2023-11-22T06:11:36;98282.03;;;7.87;77.45
61035;BME280;46916;40.564;-7.958;2023-11-22T06:13:36;98289.31;;;7.82;77.26
61035;BME280;46916;40.564;-7.958;2023-11-22T06:15:37;98288.66;;;7.79;77.66
61035;BME280;46916;40.564;-7.958;2023-11-22T06:17:38;98291.19;;;7.80;77.56
61035;BME280;46916;40.564;-7.958;2023-11-22T06:19:38;98289.88;;;7.73;77.92
61035;BME280;46916;40.564;-7.958;2023-11-22T06:21:39;98287.44;;;7.70;78.14
61035;BME280;46916;40.564;-7.958;2023-11-22T06:23:40;98285.88;;;7.67;78.01
61035;BME280;46916;40.564;-7.958;2023-11-22T06:25:41;98284.75;;;7.72;78.06
61035;BME280;46916;40.564;-7.958;2023-11-22T06:27:42;98287.38;;;7.72;78.28
61035;BME280;46916;40.564;-7.958;2023-11-22T06:29:42;98286.88;;;7.79;77.94
61035;BME280;46916;40.564;-7.958;2023-11-22T06:31:47;98296.69;;;7.90;77.66
61035;BME280;46916;40.564;-7.958;2023-11-22T06:33:47;98298.72;;;7.99;77.46
61035;BME280;46916;40.564;-7.958;2023-11-22T06:35:48;98297.63;;;8.03;77.24
61035;BME280;46916;40.564;-7.958;2023-11-22T06:37:49;98305.16;;;8.08;76.76
61035;BME280;46916;40.564;-7.958;2023-11-22T06:39:49;98306.03;;;8.08;77.09
61035;BME280;46916;40.564;-7.958;2023-11-22T06:41:51;98302.28;;;8.12;76.99
61035;BME280;46916;40.564;-7.958;2023-11-22T06:43:51;98307.31;;;8.15;76.73
61035;BME280;46916;40.564;-7.958;2023-11-22T06:45:53;98307.03;;;8.20;76.60
61035;BME280;46916;40.564;-7.958;2023-11-22T06:47:53;98314.66;;;8.23;76.26
61035;BME280;46916;40.564;-7.958;2023-11-22T06:49:54;98321.56;;;8.24;76.21
61035;BME280;46916;40.564;-7.958;2023-11-22T06:51:55;98324.16;;;8.24;76.16
61035;BME280;46916;40.564;-7.958;2023-11-22T06:53:56;98324.56;;;8.18;76.35
61035;BME280;46916;40.564;-7.958;2023-11-22T06:55:57;98328.09;;;8.17;76.56
61035;BME280;46916;40.564;-7.958;2023-11-22T06:57:57;98330.78;;;8.15;76.51
61035;BME280;46916;40.564;-7.958;2023-11-22T06:59:58;98326.50;;;8.14;76.30
61035;BME280;46916;40.564;-7.958;2023-11-22T07:01:59;98325.78;;;8.12;76.38
61035;BME280;46916;40.564;-7.958;2023-11-22T07:03:59;98328.63;;;8.08;76.54
61035;BME280;46916;40.564;-7.958;2023-11-22T07:06:03;98329.84;;;8.02;76.85
61035;BME280;46916;40.564;-7.958;2023-11-22T07:08:04;98329.84;;;8.02;77.17
61035;BME280;46916;40.564;-7.958;2023-11-22T07:10:05;98322.97;;;8.01;77.12
61035;BME280;46916;40.564;-7.958;2023-11-22T07:12:06;98331.53;;;8.03;76.74
61035;BME280;46916;40.564;-7.958;2023-11-22T07:14:08;98334.25;;;8.02;76.91
61035;BME280;46916;40.564;-7.958;2023-11-22T07:16:08;98332.47;;;8.02;76.97
61035;BME280;46916;40.564;-7.958;2023-11-22T07:18:09;98325.47;;;8.03;76.84
61035;BME280;46916;40.564;-7.958;2023-11-22T07:20:10;98325.28;;;8.06;76.71
61035;BME280;46916;40.564;-7.958;2023-11-22T07:22:16;98329.28;;;8.11;76.72
61035;BME280;46916;40.564;-7.958;2023-11-22T07:24:16;98334.81;;;8.21;76.61
61035;BME280;46916;40.564;-7.958;2023-11-22T07:26:18;98333.88;;;8.22;75.83
61035;BME280;46916;40.564;-7.958;2023-11-22T07:28:20;98334.16;;;8.17;76.19
61035;BME280;46916;40.564;-7.958;2023-11-22T07:30:20;98341.16;;;8.17;76.27
61035;BME280;46916;40.564;-7.958;2023-11-22T07:32:23;98341.44;;;8.12;76.95
61035;BME280;46916;40.564;-7.958;2023-11-22T07:34:23;98339.72;;;8.11;76.67
61035;BME280;46916;40.564;-7.958;2023-11-22T07:36:24;98338.25;;;8.07;76.53
61035;BME280;46916;40.564;-7.958;2023-11-22T07:38:25;98341.88;;;8.05;76.67
61035;BME280;46916;40.564;-7.958;2023-11-22T07:40:26;98342.44;;;8.10;76.78
61035;BME280;46916;40.564;-7.958;2023-11-22T07:42:26;98339.00;;;8.24;76.40
61035;BME280;46916;40.564;-7.958;2023-11-22T07:44:27;98344.63;;;8.46;75.82
61035;BME280;46916;40.564;-7.958;2023-11-22T07:46:28;98341.44;;;8.70;75.47
61035;BME280;46916;40.564;-7.958;2023-11-22T07:48:28;98343.63;;;8.90;74.64
61035;BME280;46916;40.564;-7.958;2023-11-22T07:50:29;98344.88;;;9.11;73.89
61035;BME280;46916;40.564;-7.958;2023-11-22T07:52:29;98339.88;;;9.21;73.05
61035;BME280;46916;40.564;-7.958;2023-11-22T07:54:30;98355.91;;;9.29;72.69
61035;BME280;46916;40.564;-7.958;2023-11-22T07:56:31;98358.16;;;9.35;72.37
61035;BME280;46916;40.564;-7.958;2023-11-22T07:58:34;98359.50;;;9.41;71.70
61035;BME280;46916;40.564;-7.958;2023-11-22T08:00:34;98368.72;;;9.47;72.10
61035;BME280;46916;40.564;-7.958;2023-11-22T08:02:35;98367.69;;;9.49;71.91
61035;BME280;46916;40.564;-7.958;2023-11-22T08:04:39;98372.94;;;9.49;71.36
61035;BME280;46916;40.564;-7.958;2023-11-22T08:06:40;98364.13;;;9.50;71.69
61035;BME280;46916;40.564;-7.958;2023-11-22T08:08:41;98365.63;;;9.54;71.38
61035;BME280;46916;40.564;-7.958;2023-11-22T08:10:42;98368.56;;;9.62;71.39
61035;BME280;46916;40.564;-7.958;2023-11-22T08:12:45;98359.56;;;9.66;71.66
61035;BME280;46916;40.564;-7.958;2023-11-22T08:14:47;98356.78;;;9.82;70.77
61035;BME280;46916;40.564;-7.958;2023-11-22T08:16:47;98350.09;;;9.91;70.67
61035;BME280;46916;40.564;-7.958;2023-11-22T08:18:48;98352.19;;;9.99;69.71
61035;BME280;46916;40.564;-7.958;2023-11-22T08:20:49;98345.72;;;10.17;69.39
61035;BME280;46916;40.564;-7.958;2023-11-22T08:22:50;98362.41;;;10.29;68.78
61035;BME280;46916;40.564;-7.958;2023-11-22T08:24:51;98360.94;;;10.37;69.40
61035;BME280;46916;40.564;-7.958;2023-11-22T08:26:52;98369.81;;;10.60;72.91
61035;BME280;46916;40.564;-7.958;2023-11-22T08:28:53;98366.91;;;10.89;72.22
61035;BME280;46916;40.564;-7.958;2023-11-22T08:30:54;98365.72;;;11.06;70.06
61035;BME280;46916;40.564;-7.958;2023-11-22T08:32:55;98371.66;;;11.21;69.50
61035;BME280;46916;40.564;-7.958;2023-11-22T08:34:55;98359.84;;;11.39;68.66
61035;BME280;46916;40.564;-7.958;2023-11-22T08:36:56;98357.91;;;11.41;65.63
61035;BME280;46916;40.564;-7.958;2023-11-22T08:38:57;98360.81;;;11.49;66.85
61035;BME280;46916;40.564;-7.958;2023-11-22T08:41:03;98365.03;;;11.63;66.10
61035;BME280;46916;40.564;-7.958;2023-11-22T08:43:06;98360.09;;;11.82;65.58
61035;BME280;46916;40.564;-7.958;2023-11-22T08:45:07;98362.41;;;11.87;64.89
61035;BME280;46916;40.564;-7.958;2023-11-22T08:47:09;98363.38;;;11.86;64.46
61035;BME280;46916;40.564;-7.958;2023-11-22T08:49:09;98367.00;;;11.96;64.88
61035;BME280;46916;40.564;-7.958;2023-11-22T08:51:11;98371.53;;;12.05;64.44
61035;BME280;46916;40.564;-7.958;2023-11-22T08:53:13;98367.81;;;12.08;62.13
61035;BME280;46916;40.564;-7.958;2023-11-22T08:55:13;98367.66;;;11.87;61.82
61035;BME280;46916;40.564;-7.958;2023-11-22T08:57:15;98359.31;;;11.58;63.64
61035;BME280;46916;40.564;-7.958;2023-11-22T08:59:15;98370.19;;;11.64;63.95
61035;BME280;46916;40.564;-7.958;2023-11-22T09:01:17;98375.44;;;11.64;64.05
61035;BME280;46916;40.564;-7.958;2023-11-22T09:03:19;98376.97;;;11.56;63.62
61035;BME280;46916;40.564;-7.958;2023-11-22T09:05:20;98380.22;;;11.47;64.75
61035;BME280;46916;40.564;-7.958;2023-11-22T09:07:22;98384.50;;;11.60;65.21
61035;BME280;46916;40.564;-7.958;2023-11-22T09:09:24;98389.19;;;11.79;65.30
61035;BME280;46916;40.564;-7.958;2023-11-22T09:11:31;98392.91;;;12.01;65.02
61035;BME280;46916;40.564;-7.958;2023-11-22T09:13:34;98389.94;;;12.17;64.87
61035;BME280;46916;40.564;-7.958;2023-11-22T09:15:35;98390.44;;;12.22;63.60
61035;BME280;46916;40.564;-7.958;2023-11-22T09:17:39;98386.13;;;12.21;63.90
61035;BME280;46916;40.564;-7.958;2023-11-22T09:19:43;98380.63;;;12.24;63.81
61035;BME280;46916;40.564;-7.958;2023-11-22T09:21:44;98392.72;;;12.26;63.72
61035;BME280;46916;40.564;-7.958;2023-11-22T09:23:44;98394.50;;;12.26;63.34
61035;BME280;46916;40.564;-7.958;2023-11-22T09:25:45;98392.97;;;12.34;63.38
61035;BME280;46916;40.564;-7.958;2023-11-22T09:27:47;98389.38;;;12.47;63.84
61035;BME280;46916;40.564;-7.958;2023-11-22T09:29:48;98390.47;;;12.55;62.99
61035;BME280;46916;40.564;-7.958;2023-11-22T09:31:51;98386.88;;;12.56;62.94
61035;BME280;46916;40.564;-7.958;2023-11-22T09:33:54;98393.91;;;12.56;63.36
61035;BME280;46916;40.564;-7.958;2023-11-22T09:35:57;98394.88;;;12.55;62.62
61035;BME280;46916;40.564;-7.958;2023-11-22T09:38:07;98399.41;;;12.53;62.61
61035;BME280;46916;40.564;-7.958;2023-11-22T09:40:20;98409.44;;;12.48;62.13
61035;BME280;46916;40.564;-7.958;2023-11-22T09:42:22;98398.69;;;12.39;62.33
61035;BME280;46916;40.564;-7.958;2023-11-22T09:44:23;98407.91;;;12.45;62.79
61035;BME280;46916;40.564;-7.958;2023-11-22T09:46:24;98400.03;;;12.45;61.89
61035;BME280;46916;40.564;-7.958;2023-11-22T09:48:25;98408.38;;;12.50;62.96
61035;BME280;46916;40.564;-7.958;2023-11-22T09:52:38;98415.88;;;12.44;62.43
61035;BME280;46916;40.564;-7.958;2023-11-22T09:54:42;98413.88;;;12.47;62.31
61035;BME280;46916;40.564;-7.958;2023-11-22T09:56:44;98419.00;;;12.49;62.61
61035;BME280;46916;40.564;-7.958;2023-11-22T09:58:58;98407.78;;;12.58;61.42
61035;BME280;46916;40.564;-7.958;2023-11-22T10:01:01;98420.09;;;12.57;61.83
61035;BME280;46916;40.564;-7.958;2023-11-22T10:03:02;98417.47;;;12.57;62.02
61035;BME280;46916;40.564;-7.958;2023-11-22T10:05:03;98410.06;;;12.62;61.42
61035;BME280;46916;40.564;-7.958;2023-11-22T10:07:04;98415.31;;;12.62;61.77
61035;BME280;46916;40.564;-7.958;2023-11-22T10:09:04;98413.16;;;12.68;61.75
61035;BME280;46916;40.564;-7.958;2023-11-22T10:11:08;98414.47;;;12.73;61.90
61035;BME280;46916;40.564;-7.958;2023-11-22T10:13:09;98413.03;;;12.80;60.86
61035;BME280;46916;40.564;-7.958;2023-11-22T10:15:14;98421.06;;;12.79;60.33
61035;BME280;46916;40.564;-7.958;2023-11-22T10:17:16;98423.56;;;12.69;60.94
61035;BME280;46916;40.564;-7.958;2023-11-22T10:19:17;98416.75;;;12.67;60.93
61035;BME280;46916;40.564;-7.958;2023-11-22T10:21:28;98420.69;;;12.72;60.74
61035;BME280;46916;40.564;-7.958;2023-11-22T10:23:31;98417.59;;;12.67;61.19
61035;BME280;46916;40.564;-7.958;2023-11-22T10:25:31;98420.59;;;12.62;62.28
61035;BME280;46916;40.564;-7.958;2023-11-22T10:27:32;98419.25;;;12.68;62.54
61035;BME280;46916;40.564;-7.958;2023-11-22T10:29:33;98412.09;;;12.70;61.93
61035;BME280;46916;40.564;-7.958;2023-11-22T10:31:34;98415.19;;;12.75;61.64
61035;BME280;46916;40.564;-7.958;2023-11-22T10:33:42;98418.19;;;12.71;61.50
61035;BME280;46916;40.564;-7.958;2023-11-22T10:35:44;98415.91;;;12.77;61.00
61035;BME280;46916;40.564;-7.958;2023-11-22T10:37:45;98412.34;;;12.67;61.09
61035;BME280;46916;40.564;-7.958;2023-11-22T10:39:52;98408.13;;;12.64;61.84
61035;BME280;46916;40.564;-7.958;2023-11-22T10:41:54;98406.25;;;12.67;62.40
61035;BME280;46916;40.564;-7.958;2023-11-22T10:43:55;98396.44;;;12.69;61.82